createdAt,value
2023-05-11T00:01:12.977Z,100180.69
2023-05-11T00:03:39.652Z,100174.84
2023-05-11T00:06:06.559Z,100173.53
2023-05-11T00:08:33.302Z,100172.41
2023-05-11T00:11:03.024Z,100170.25
2023-05-11T00:13:29.762Z,100160.09
2023-05-11T00:15:56.710Z,100165.25
2023-05-11T00:18:23.577Z,100159.78
2023-05-11T00:20:50.345Z,100155.91
2023-05-11T00:23:17.122Z,100155.63
2023-05-11T00:25:43.886Z,100153.19
2023-05-11T00:28:14.149Z,100146.75
2023-05-11T00:30:41.429Z,100150.75
2023-05-11T00:33:08.110Z,100142.84
2023-05-11T00:35:34.828Z,100149.47
2023-05-11T00:38:01.532Z,100155.16
2023-05-11T00:40:28.536Z,100145.47
2023-05-11T00:42:55.386Z,100138.41
2023-05-11T00:45:22.052Z,100135.97
2023-05-11T00:47:48.772Z,100138.72
2023-05-11T00:50:15.980Z,100134.28
2023-05-11T00:52:43.058Z,100135.41
2023-05-11T00:55:10.379Z,100129.69
2023-05-11T00:57:38.811Z,100133.69
2023-05-11T01:00:07.229Z,100128.25
2023-05-11T01:02:34.248Z,100128.25
2023-05-11T01:05:03.602Z,100125.97
2023-05-11T01:07:37.233Z,100126.25
2023-05-11T01:10:13.958Z,100127.25
2023-05-11T01:13:04.938Z,100127.97
2023-05-11T01:15:42.223Z,100121.69
2023-05-11T01:18:08.863Z,100111.63
2023-05-11T01:20:36.077Z,100121.53
2023-05-11T01:23:14.374Z,100114.78
2023-05-11T01:26:04.312Z,100121.97
2023-05-11T01:29:10.752Z,100120.06
2023-05-11T01:31:42.496Z,100113.63
2023-05-11T01:34:19.383Z,100113.91
2023-05-11T01:36:58.555Z,100109.91
2023-05-11T01:39:32.261Z,100112.03
2023-05-11T01:42:06.685Z,100115.34
2023-05-11T01:44:35.544Z,100103.31
2023-05-11T01:47:03.555Z,100099.13
2023-05-11T01:49:35.304Z,100097.53
2023-05-11T01:52:04.102Z,100091.84
2023-05-11T01:54:32.089Z,100096.41
2023-05-11T01:57:00.757Z,100094.97
2023-05-11T01:59:29.014Z,100100.41
2023-05-11T02:01:58.017Z,100093.53
2023-05-11T02:04:26.668Z,100092.06
2023-05-11T02:06:55.190Z,100074.47
2023-05-11T02:09:23.097Z,100067.31
2023-05-11T02:11:51.101Z,100065.75
2023-05-11T02:14:19.957Z,100064.84
2023-05-11T02:16:48.054Z,100067.75
2023-05-11T02:19:15.698Z,100061.13
2023-05-11T02:21:46.188Z,100056.69
2023-05-11T02:24:13.213Z,100059.41
2023-05-11T02:26:39.940Z,100054.81
2023-05-11T02:29:06.708Z,100053.53
2023-05-11T02:31:40.300Z,100055.81
2023-05-11T02:34:19.051Z,100055.97
2023-05-11T02:36:48.348Z,100051.81
2023-05-11T02:39:21.969Z,100046.81
2023-05-11T02:41:57.076Z,100045.53
2023-05-11T02:44:31.027Z,100047.53
2023-05-11T02:47:01.526Z,100040.38
2023-05-11T02:49:30.914Z,100046.38
2023-05-11T02:52:01.158Z,100047.63
2023-05-11T02:54:29.360Z,100043.38
2023-05-11T02:56:56.728Z,100044.22
2023-05-11T02:59:24.837Z,100040.66
2023-05-11T03:01:53.019Z,100033.59
2023-05-11T03:04:19.770Z,100037.03
2023-05-11T03:06:46.700Z,100024.03
2023-05-11T03:09:13.740Z,100033.03
2023-05-11T03:11:41.245Z,100032.19
2023-05-11T03:14:08.343Z,100034.78
2023-05-11T03:16:37.510Z,100025.59
2023-05-11T03:19:09.321Z,100028.75
2023-05-11T03:21:37.665Z,100037.75
2023-05-11T03:24:07.139Z,100033.03
2023-05-11T03:26:35.240Z,100030.75
2023-05-11T03:29:03.194Z,100026.31
2023-05-11T03:31:30.038Z,100031.88
2023-05-11T03:33:57.527Z,100031.59
2023-05-11T03:36:25.515Z,100025.16
2023-05-11T03:38:56.528Z,100029.53
2023-05-11T03:41:25.936Z,100030.88
2023-05-11T03:43:54.459Z,100035.88
2023-05-11T03:46:22.793Z,100024.25
2023-05-11T03:48:50.735Z,100018.09
2023-05-11T03:51:17.524Z,100027.97
2023-05-11T03:53:44.349Z,100022.38
2023-05-11T03:56:11.362Z,100019.53
2023-05-11T03:58:40.510Z,100017.09
2023-05-11T04:01:10.977Z,100011.94
2023-05-11T04:03:51.245Z,100008.06
2023-05-11T04:06:19.133Z,100010.34
2023-05-11T04:08:46.018Z,100003.44
2023-05-11T04:11:12.680Z,100004.06
2023-05-11T04:13:39.423Z,99994.47
2023-05-11T04:16:06.637Z,99803.06
2023-05-11T04:18:33.487Z,99807.66
2023-05-11T04:21:00.300Z,99800.91
2023-05-11T04:23:26.971Z,99794.91
2023-05-11T04:25:57.392Z,99789.47
2023-05-11T04:28:27.574Z,99783.59
2023-05-11T04:30:55.648Z,99776.72
2023-05-11T04:33:23.117Z,99780.56
2023-05-11T04:35:54.408Z,99768.69
2023-05-11T04:38:22.233Z,99760.81
2023-05-11T04:40:50.554Z,99758.69
2023-05-11T04:43:18.100Z,99749.81
2023-05-11T04:45:49.378Z,99745.78
2023-05-11T04:48:18.091Z,99734.22
2023-05-11T04:50:47.100Z,99730.56
2023-05-11T04:53:13.834Z,99717.44
2023-05-11T04:55:40.778Z,99726.59
2023-05-11T04:58:07.420Z,99727.75
2023-05-11T05:00:34.185Z,99720.16
2023-05-11T05:03:01.022Z,99713.28
2023-05-11T05:05:27.777Z,99712.28
2023-05-11T05:07:54.518Z,99712.88
2023-05-11T05:10:21.920Z,99706.97
2023-05-11T05:12:48.912Z,99699.66
2023-05-11T05:15:15.611Z,99697.97
2023-05-11T05:17:42.240Z,99641.22
2023-05-11T05:20:09.254Z,99640.09
2023-05-11T05:22:35.901Z,99633.22
2023-05-11T05:25:02.586Z,99636.63
2023-05-11T05:27:29.249Z,99630.31
2023-05-11T05:29:58.619Z,99629.47
2023-05-11T05:32:25.455Z,99632.50
2023-05-11T05:34:52.473Z,99635.63
2023-05-11T05:37:19.232Z,99626.84
2023-05-11T05:39:48.268Z,99610.53
2023-05-11T05:42:15.162Z,99658.66
2023-05-11T05:44:41.925Z,99789.81
2023-05-11T05:47:08.593Z,99791.38
2023-05-11T05:49:35.362Z,99790.06
2023-05-11T05:52:02.139Z,99791.94
2023-05-11T05:54:28.934Z,99793.38
2023-05-11T05:56:55.613Z,99803.00
2023-05-11T05:59:24.263Z,99805.28
2023-05-11T06:01:51.607Z,99802.81
2023-05-11T06:04:18.638Z,99797.50
2023-05-11T06:06:46.463Z,99779.38
2023-05-11T06:09:13.824Z,99775.84
2023-05-11T06:11:41.116Z,99764.81
2023-05-11T06:14:07.743Z,99787.03
2023-05-11T06:16:34.596Z,99778.16
2023-05-11T06:19:01.392Z,99782.44
2023-05-11T06:21:28.188Z,99791.69
2023-05-11T06:23:54.866Z,99789.31
2023-05-11T06:26:24.970Z,99816.25
2023-05-11T06:28:52.871Z,99825.84
2023-05-11T06:31:19.856Z,99835.75
2023-05-11T06:33:46.561Z,99853.28
2023-05-11T06:36:13.240Z,99861.56
2023-05-11T06:38:39.919Z,99870.94
2023-05-11T06:41:07.480Z,99886.28
2023-05-11T06:43:34.242Z,99939.78
2023-05-11T06:46:00.922Z,99974.56
2023-05-11T06:48:29.801Z,99978.88
2023-05-11T06:50:57.152Z,99989.53
2023-05-11T06:53:23.826Z,100010.16
2023-05-11T06:55:50.772Z,100031.56
2023-05-11T06:58:20.470Z,100055.94
2023-05-11T07:00:47.499Z,100068.13
2023-05-11T07:03:14.314Z,100099.13
2023-05-11T07:05:41.181Z,100137.84
2023-05-11T07:08:07.958Z,100139.84
2023-05-11T07:10:34.697Z,100153.16
2023-05-11T07:13:01.331Z,100176.34
2023-05-11T07:15:28.192Z,100186.50
2023-05-11T07:17:55.061Z,100212.50
2023-05-11T07:20:21.811Z,100217.38
2023-05-11T07:22:48.606Z,100262.25
2023-05-11T07:25:15.319Z,100267.41
2023-05-11T07:27:42.086Z,100265.94
2023-05-11T07:30:09.046Z,100295.56
2023-05-11T07:32:35.923Z,100317.13
2023-05-11T07:35:02.628Z,100347.47
2023-05-11T07:37:29.310Z,100373.63
2023-05-11T07:39:55.979Z,100367.72
2023-05-11T07:42:23.098Z,100406.66
2023-05-11T07:44:49.941Z,100414.59
2023-05-11T07:47:18.930Z,100424.06
2023-05-11T07:49:47.371Z,100445.63
2023-05-11T07:52:17.140Z,100452.38
2023-05-11T07:54:44.076Z,100483.41
2023-05-11T07:57:14.050Z,100492.03
2023-05-11T07:59:41.093Z,100595.69
2023-05-11T08:02:11.467Z,100600.09
2023-05-11T08:04:40.678Z,100608.56
2023-05-11T08:07:07.569Z,100621.22
2023-05-11T08:09:34.204Z,100531.84
2023-05-11T08:12:02.201Z,100537.72
2023-05-11T08:14:28.869Z,100546.16
2023-05-11T08:16:55.879Z,100545.66
2023-05-11T08:19:22.540Z,100551.00
2023-05-11T08:21:49.487Z,100571.22
2023-05-11T08:24:16.335Z,100573.59
2023-05-11T08:26:43.303Z,100578.41
2023-05-11T08:29:12.395Z,100584.75
2023-05-11T08:31:40.410Z,100585.66
2023-05-11T08:34:18.226Z,100592.56
2023-05-11T08:36:46.837Z,100596.63
2023-05-11T08:39:13.563Z,100603.09
2023-05-11T08:41:40.440Z,100608.41
2023-05-11T08:44:08.149Z,100627.47
2023-05-11T08:46:38.602Z,100611.63
2023-05-11T08:49:07.115Z,100622.81
2023-05-11T08:51:33.801Z,100647.53
2023-05-11T08:54:00.478Z,100654.06
2023-05-11T08:56:29.588Z,100648.41
2023-05-11T08:58:57.772Z,100667.53
2023-05-11T09:01:28.342Z,100672.84
2023-05-11T09:03:56.344Z,100675.75
2023-05-11T09:06:25.317Z,100677.19
2023-05-11T09:08:52.965Z,100684.16
2023-05-11T09:11:20.099Z,100696.81
2023-05-11T09:13:47.359Z,100704.13
2023-05-11T09:18:50.793Z,100721.03
2023-05-11T09:21:17.714Z,100722.63
2023-05-11T09:23:44.866Z,100742.28
2023-05-11T09:26:15.699Z,100743.91
2023-05-11T09:29:02.424Z,100764.47
2023-05-11T09:31:45.849Z,100762.81
2023-05-11T09:34:17.214Z,100768.53
2023-05-11T09:36:46.098Z,100775.56
2023-05-11T09:39:15.913Z,100784.47
2023-05-11T09:41:43.413Z,100788.56
2023-05-11T09:44:15.256Z,100774.59
2023-05-11T09:46:44.365Z,100789.50
2023-05-11T09:49:12.272Z,100794.16
2023-05-11T09:51:40.829Z,100792.44
2023-05-11T09:54:18.049Z,100790.88
2023-05-11T09:56:49.488Z,100783.22
2023-05-11T09:59:18.179Z,100784.03
2023-05-11T10:01:45.012Z,100819.28
2023-05-11T10:04:22.943Z,100842.22
2023-05-11T10:06:55.520Z,100840.22
2023-05-11T10:09:27.221Z,100849.06
2023-05-11T10:11:55.659Z,100858.16
2023-05-11T10:14:22.690Z,100858.44
2023-05-11T10:16:50.090Z,100864.69
2023-05-11T10:19:17.484Z,100854.31
2023-05-11T10:21:44.790Z,100852.09
2023-05-11T10:24:11.867Z,100835.19
2023-05-11T10:26:38.948Z,100820.47
2023-05-11T10:29:05.941Z,100826.47
2023-05-11T10:31:33.512Z,100811.81
2023-05-11T10:34:01.917Z,100807.50
2023-05-11T10:36:29.233Z,100798.53
2023-05-11T10:38:56.151Z,100792.16
2023-05-11T10:42:00.218Z,100786.50
2023-05-11T10:45:04.175Z,100803.63
2023-05-11T10:48:06.371Z,100805.88
2023-05-11T10:51:00.932Z,100805.16
2023-05-11T10:53:49.345Z,100807.69
2023-05-11T10:56:31.720Z,100810.44
2023-05-11T10:59:10.472Z,100812.00
2023-05-11T11:01:39.863Z,100806.16
2023-05-11T11:04:08.796Z,100815.81
2023-05-11T11:06:40.504Z,100813.09
2023-05-11T11:09:13.318Z,100806.16
2023-05-11T11:11:50.327Z,100799.59
2023-05-11T11:14:18.368Z,100799.41
2023-05-11T11:17:14.276Z,100812.53
2023-05-11T11:19:41.132Z,100814.94
2023-05-11T11:22:37.004Z,100820.38
2023-05-11T11:25:08.590Z,100831.44
2023-05-11T11:27:41.466Z,100828.56
2023-05-11T11:30:18.332Z,100843.53
2023-05-11T11:32:46.588Z,100845.22
2023-05-11T11:35:47.355Z,100837.38
2023-05-11T11:38:20.531Z,100862.28
2023-05-11T11:40:51.673Z,100877.88
2023-05-11T11:43:24.695Z,100875.66
2023-05-11T11:46:01.603Z,100893.63
2023-05-11T11:48:40.513Z,100904.13
2023-05-11T11:51:08.998Z,100906.19
2023-05-11T11:53:43.674Z,100900.91
2023-05-11T11:56:18.697Z,100906.53
2023-05-11T11:58:45.281Z,100906.19
2023-05-11T12:01:12.580Z,100940.78
2023-05-11T12:03:41.822Z,100969.94
2023-05-11T12:06:10.118Z,100970.75
2023-05-11T12:08:38.887Z,100994.00
2023-05-11T12:11:07.212Z,101022.28
2023-05-11T12:13:35.397Z,101032.41
2023-05-11T12:16:16.307Z,101048.00
2023-05-11T12:18:52.832Z,101071.94
2023-05-11T12:21:21.212Z,101108.16
2023-05-11T12:23:56.301Z,101291.66
2023-05-11T12:26:24.713Z,101304.50
2023-05-11T12:29:05.962Z,101337.81
2023-05-11T12:31:40.900Z,101369.47
2023-05-11T12:34:15.180Z,101415.16
2023-05-11T12:36:42.661Z,101443.91
2023-05-11T12:39:17.637Z,101473.41
2023-05-11T12:41:45.113Z,101491.34
2023-05-11T12:44:12.064Z,101506.97
2023-05-11T12:46:39.223Z,101529.19
2023-05-11T12:49:06.593Z,101525.53
2023-05-11T12:52:01.300Z,101553.19
2023-05-11T12:54:38.367Z,101566.75
2023-05-11T12:57:06.885Z,101570.94
2023-05-11T12:59:39.399Z,101564.03
2023-05-11T13:02:07.020Z,101580.44
2023-05-11T13:04:33.968Z,101589.84
2023-05-11T13:07:00.809Z,101610.28
2023-05-11T13:09:28.144Z,101595.91
2023-05-11T13:12:32.304Z,101606.53
2023-05-11T13:15:07.864Z,101608.94
2023-05-11T13:17:37.367Z,101601.19
2023-05-11T13:20:27.946Z,101616.56
2023-05-11T13:23:10.849Z,101627.28
2023-05-11T13:25:46.563Z,101628.41
2023-05-11T13:28:18.495Z,101638.31
2023-05-11T13:30:46.681Z,101639.72
2023-05-11T13:33:13.593Z,101655.78
2023-05-11T13:35:41.659Z,101657.19
2023-05-11T13:38:12.224Z,101665.94
2023-05-11T13:40:39.211Z,101651.72
2023-05-11T13:43:07.566Z,101651.06
2023-05-11T13:45:36.456Z,101659.63
2023-05-11T13:48:03.576Z,101662.81
2023-05-11T13:50:30.795Z,101669.81
2023-05-11T13:52:57.516Z,101681.13
2023-05-11T13:55:25.247Z,101682.94
2023-05-11T13:57:52.039Z,101685.75
2023-05-11T14:00:19.708Z,101682.41
2023-05-11T14:02:48.306Z,101677.75
2023-05-11T14:05:15.235Z,101679.25
2023-05-11T14:07:46.953Z,101678.59
2023-05-11T14:10:15.623Z,101678.03
2023-05-11T14:12:42.556Z,101671.19
2023-05-11T14:15:09.790Z,101682.94
2023-05-11T14:17:36.736Z,101677.41
2023-05-11T14:20:04.359Z,101672.22
2023-05-11T14:22:31.265Z,101699.75
2023-05-11T14:24:58.025Z,101693.16
2023-05-11T14:27:24.705Z,101697.28
2023-05-11T14:29:52.178Z,101696.50
2023-05-11T14:32:19.603Z,101690.78
2023-05-11T14:34:46.758Z,101695.72
2023-05-11T14:37:13.472Z,101695.25
2023-05-11T14:39:41.365Z,101692.69
2023-05-11T14:42:08.405Z,101703.88
2023-05-11T14:44:35.197Z,101708.69
2023-05-11T14:47:02.050Z,101708.59
2023-05-11T14:49:28.864Z,101702.22
2023-05-11T14:51:56.622Z,101700.34
2023-05-11T14:54:23.447Z,101697.56
2023-05-11T14:56:53.930Z,101691.78
2023-05-11T14:59:21.946Z,101703.53
2023-05-11T15:01:49.624Z,101708.03
2023-05-11T15:04:16.942Z,101705.25
2023-05-11T15:06:43.996Z,101714.47
2023-05-11T15:09:10.821Z,101709.97
2023-05-11T15:11:37.549Z,101724.03
2023-05-11T15:14:05.850Z,101718.94
2023-05-11T15:16:33.111Z,101716.13
2023-05-11T15:19:00.111Z,101723.88
2023-05-11T15:21:27.418Z,101732.56
2023-05-11T15:23:54.348Z,101742.03
2023-05-11T15:26:22.311Z,101742.63
2023-05-11T15:28:49.264Z,101744.22
2023-05-11T15:31:16.167Z,101753.47
2023-05-11T15:33:43.344Z,101755.75
2023-05-11T15:36:14.354Z,101749.00
2023-05-11T15:38:42.568Z,101751.34
2023-05-11T15:41:09.475Z,101754.34
2023-05-11T15:43:36.192Z,101744.41
2023-05-11T15:46:03.881Z,101742.84
2023-05-11T15:48:30.834Z,101737.88
2023-05-11T15:50:59.909Z,101737.03
2023-05-11T15:53:27.056Z,101735.66
2023-05-11T15:55:55.546Z,101724.22
2023-05-11T15:58:22.553Z,101714.91
2023-05-11T16:00:49.400Z,101714.59
2023-05-11T16:03:16.570Z,101702.38
2023-05-11T16:05:44.466Z,101708.25
2023-05-11T16:08:11.292Z,101699.28
2023-05-11T16:10:38.049Z,101703.31
2023-05-11T16:13:04.785Z,101705.69
2023-05-11T16:15:31.958Z,101698.91
2023-05-11T16:17:58.820Z,101691.56
2023-05-11T16:20:25.793Z,101693.47
2023-05-11T16:22:52.572Z,101692.94
2023-05-11T16:25:19.262Z,101690.34
2023-05-11T16:27:45.873Z,101693.00
2023-05-11T16:30:23.027Z,101674.06
2023-05-11T16:32:51.959Z,101678.63
2023-05-11T16:35:18.773Z,101673.97
2023-05-11T16:37:46.717Z,101674.59
2023-05-11T16:40:13.598Z,101664.66
2023-05-11T16:42:40.380Z,101668.66
2023-05-11T16:45:07.426Z,101659.75
2023-05-11T16:47:34.214Z,101666.19
2023-05-11T16:50:00.950Z,101666.19
2023-05-11T16:52:27.750Z,101654.78
2023-05-11T16:54:58.984Z,101655.09
2023-05-11T16:57:26.052Z,101659.44
2023-05-11T16:59:52.746Z,101654.84
2023-05-11T17:02:19.963Z,101650.41
2023-05-11T17:04:46.974Z,101646.59
2023-05-11T17:07:16.076Z,101642.91
2023-05-11T17:09:43.092Z,101651.09
2023-05-11T17:12:13.170Z,101646.44
2023-05-11T17:14:39.848Z,101641.84
2023-05-11T17:17:08.122Z,101639.69
2023-05-11T17:19:34.849Z,101644.06
2023-05-11T17:22:01.589Z,101647.19
2023-05-11T17:24:28.658Z,101640.31
2023-05-11T17:26:55.540Z,101647.00
2023-05-11T17:29:24.430Z,101643.16
2023-05-11T17:31:51.863Z,101650.53
2023-05-11T17:34:19.742Z,101658.44
2023-05-11T17:36:48.416Z,101655.81
2023-05-11T17:39:16.442Z,101651.44
2023-05-11T17:41:43.569Z,101649.44
2023-05-11T17:44:10.314Z,101654.69
2023-05-11T17:46:37.015Z,101653.16
2023-05-11T17:49:04.141Z,101662.19
2023-05-11T17:51:31.286Z,101654.00
2023-05-11T17:53:57.915Z,101666.19
2023-05-11T17:56:24.620Z,101663.63
2023-05-11T17:58:57.413Z,101668.81
2023-05-11T18:01:24.230Z,101663.41
2023-05-11T18:03:51.037Z,101667.97
2023-05-11T18:06:17.798Z,101673.50
2023-05-11T18:08:45.018Z,101678.63
2023-05-11T18:11:12.842Z,101677.63
2023-05-11T18:13:40.446Z,101671.63
2023-05-11T18:16:07.515Z,101675.25
2023-05-11T18:18:34.536Z,101682.72
2023-05-11T18:21:05.744Z,101690.53
2023-05-11T18:23:32.875Z,101676.34
2023-05-11T18:25:59.632Z,101680.19
2023-05-11T18:28:26.313Z,101685.41
2023-05-11T18:30:54.143Z,101686.31
2023-05-11T18:33:21.086Z,101680.69
2023-05-11T18:35:48.104Z,101682.69
2023-05-11T18:38:14.744Z,101683.66
2023-05-11T18:40:41.530Z,101678.81
2023-05-11T18:43:08.629Z,101686.47
2023-05-11T18:45:35.308Z,101697.66
2023-05-11T18:48:02.899Z,101688.56
2023-05-11T18:50:30.194Z,101695.25
2023-05-11T18:52:57.792Z,101695.06
2023-05-11T18:55:25.314Z,101696.75
2023-05-11T18:57:52.797Z,101702.72
2023-05-11T19:00:20.414Z,101699.75
2023-05-11T19:02:48.246Z,101703.94
2023-05-11T19:05:15.168Z,101712.09
2023-05-11T19:07:42.090Z,101705.03
2023-05-11T19:10:09.208Z,101713.09
2023-05-11T19:12:35.897Z,101713.13
2023-05-11T19:15:02.581Z,101717.66
2023-05-11T19:17:29.266Z,101725.06
2023-05-11T19:19:59.649Z,101722.78
2023-05-11T19:22:26.466Z,101722.56
2023-05-11T19:24:53.188Z,101727.06
2023-05-11T19:27:20.054Z,101736.78
2023-05-11T19:29:50.145Z,101738.88
2023-05-11T19:32:18.938Z,101744.72
2023-05-11T19:34:45.829Z,101752.72
2023-05-11T19:37:12.528Z,101752.41
2023-05-11T19:39:39.223Z,101761.53
2023-05-11T19:42:05.992Z,101760.28
2023-05-11T19:44:33.230Z,101758.09
2023-05-11T19:46:59.991Z,101763.03
2023-05-11T19:49:27.987Z,101761.91
2023-05-11T19:51:55.134Z,101763.09
2023-05-11T19:54:22.348Z,101771.84
2023-05-11T19:56:49.069Z,101765.22
2023-05-11T19:59:15.748Z,101776.00
2023-05-11T20:01:42.458Z,101778.09
2023-05-11T20:04:09.391Z,101778.97
2023-05-11T20:06:36.078Z,101772.50
2023-05-11T20:09:02.775Z,101778.75
2023-05-11T20:11:31.130Z,101783.88
2023-05-11T20:14:00.730Z,101782.38
2023-05-11T20:16:30.769Z,101783.13
2023-05-11T20:18:59.260Z,101780.28
2023-05-11T20:21:26.518Z,101773.91
2023-05-11T20:23:53.478Z,101778.97
2023-05-11T20:26:20.227Z,101779.50
2023-05-11T20:28:46.881Z,101771.63
2023-05-11T20:31:13.569Z,101779.06
2023-05-11T20:36:10.442Z,101780.63
2023-05-11T20:38:37.106Z,101783.97
2023-05-11T20:41:03.763Z,101780.94
2023-05-11T20:43:30.625Z,101789.44
2023-05-11T20:46:03.376Z,101791.28
2023-05-11T20:48:39.165Z,101794.69
2023-05-11T20:51:07.735Z,101789.84
2023-05-11T20:53:34.531Z,101797.97
2023-05-11T20:56:02.796Z,101809.25
2023-05-11T20:58:30.951Z,101807.50
2023-05-11T21:00:57.966Z,101808.59
2023-05-11T21:03:26.727Z,101812.84
2023-05-11T21:05:53.820Z,101817.09
2023-05-11T21:08:20.749Z,101819.59
2023-05-11T21:10:47.525Z,101821.59
2023-05-11T21:13:14.292Z,101827.91
2023-05-11T21:15:41.323Z,101823.44
2023-05-11T21:18:08.121Z,101831.97
2023-05-11T21:20:34.848Z,101835.91
2023-05-11T21:23:01.970Z,101847.66
2023-05-11T21:25:28.631Z,101850.84
2023-05-11T21:27:55.345Z,101852.97
2023-05-11T21:30:24.708Z,101867.03
2023-05-11T21:32:51.478Z,101859.81
2023-05-11T21:35:18.677Z,101863.31
2023-05-11T21:37:49.491Z,101861.72
2023-05-11T21:40:17.946Z,101863.38
2023-05-11T21:42:45.191Z,101870.25
2023-05-11T21:45:12.139Z,101870.53
2023-05-11T21:47:39.443Z,101862.84
2023-05-11T21:50:08.478Z,101867.94
2023-05-11T21:52:35.275Z,101860.94
2023-05-11T21:55:02.004Z,101859.19
2023-05-11T21:57:29.162Z,101859.81
2023-05-11T21:59:55.802Z,101849.09
2023-05-11T22:02:23.021Z,101845.00
2023-05-11T22:04:49.900Z,101846.84
2023-05-11T22:07:16.581Z,101845.41
2023-05-11T22:09:43.461Z,101844.13
2023-05-11T22:12:10.186Z,101843.44
2023-05-11T22:14:36.770Z,101843.44
2023-05-11T22:17:03.559Z,101840.72
2023-05-11T22:19:30.311Z,101843.16
2023-05-11T22:21:57.042Z,101840.44
2023-05-11T22:24:26.924Z,101838.91
2023-05-11T22:26:54.231Z,101831.28
2023-05-11T22:29:22.119Z,101835.69
2023-05-11T22:31:51.581Z,101822.41
2023-05-11T22:34:20.974Z,101825.34
2023-05-11T22:36:47.608Z,101833.09
2023-05-11T22:39:14.393Z,101836.41
2023-05-11T22:41:41.129Z,101847.38
2023-05-11T22:44:08.397Z,101838.53
2023-05-11T22:46:35.104Z,101844.91
2023-05-11T22:49:01.935Z,101829.84
2023-05-11T22:51:28.692Z,101838.66
2023-05-11T22:53:55.392Z,101847.00
2023-05-11T22:56:22.273Z,101847.00
2023-05-11T22:58:49.110Z,101855.31
2023-05-11T23:01:15.845Z,101855.34
2023-05-11T23:03:42.803Z,101859.00
2023-05-11T23:06:09.615Z,101872.00
2023-05-11T23:08:36.375Z,101868.19
2023-05-11T23:11:03.313Z,101868.41
2023-05-11T23:13:29.995Z,101872.00
2023-05-11T23:15:56.640Z,101872.75
2023-05-11T23:18:23.470Z,101869.03
2023-05-11T23:20:58.174Z,101880.69
2023-05-11T23:23:26.785Z,101874.28
2023-05-11T23:25:53.825Z,101876.47
2023-05-11T23:28:20.778Z,101878.34
2023-05-11T23:30:47.496Z,101878.53
2023-05-11T23:33:15.061Z,101882.22
2023-05-11T23:35:41.842Z,101874.31
2023-05-11T23:38:08.538Z,101882.16
2023-05-11T23:40:35.230Z,101890.78
2023-05-11T23:43:02.029Z,101896.03
2023-05-11T23:45:28.759Z,101907.16
2023-05-11T23:47:55.453Z,101905.09
2023-05-11T23:50:22.201Z,101906.69
2023-05-11T23:52:49.664Z,101912.44
2023-05-11T23:55:16.334Z,101907.75
2023-05-11T23:57:43.788Z,101904.13
